createdAt,value
2018-05-11T00:00:26.258Z,7.60
2018-05-11T00:02:53.595Z,8.45
2018-05-11T00:05:20.913Z,7.30
2018-05-11T00:07:48.275Z,7.75
2018-05-11T00:10:15.574Z,8.02
2018-05-11T00:12:43.239Z,6.87
2018-05-11T00:15:10.898Z,7.50
2018-05-11T00:17:38.564Z,7.30
2018-05-11T00:20:05.922Z,7.50
2018-05-11T00:22:33.577Z,7.37
2018-05-11T00:25:00.930Z,8.30
2018-05-11T00:27:28.599Z,7.22
2018-05-11T00:29:56.269Z,7.07
2018-05-11T00:32:23.561Z,7.10
2018-05-11T00:34:51.175Z,7.50
2018-05-11T00:37:18.839Z,7.40
2018-05-11T00:39:46.143Z,7.25
2018-05-11T00:42:13.445Z,7.80
2018-05-11T00:44:40.808Z,6.85
2018-05-11T00:47:08.133Z,7.40
2018-05-11T00:49:35.479Z,7.15
2018-05-11T00:52:03.175Z,6.80
2018-05-11T00:54:30.833Z,7.50
2018-05-11T00:56:58.169Z,7.32
2018-05-11T00:59:25.582Z,6.80
2018-05-11T01:01:52.870Z,6.72
2018-05-11T01:04:20.463Z,6.70
2018-05-11T01:06:47.811Z,6.03
2018-05-11T01:09:15.131Z,5.95
2018-05-11T01:11:42.438Z,6.93
2018-05-11T01:14:09.769Z,6.17
2018-05-11T01:16:37.070Z,5.30
2018-05-11T01:19:04.418Z,5.97
2018-05-11T01:21:32.046Z,5.60
2018-05-11T01:23:59.353Z,5.80
2018-05-11T01:26:26.669Z,5.37
2018-05-11T01:28:54.323Z,5.60
2018-05-11T01:31:21.624Z,5.20
2018-05-11T01:33:48.978Z,5.70
2018-05-11T01:36:16.321Z,5.87
2018-05-11T01:38:43.629Z,5.72
2018-05-11T01:41:10.966Z,5.10
2018-05-11T01:43:38.347Z,5.40
2018-05-11T01:46:05.921Z,5.35
2018-05-11T01:48:33.252Z,5.20
2018-05-11T01:51:00.646Z,4.83
2018-05-11T01:53:27.954Z,5.50
2018-05-11T01:55:55.300Z,5.22
2018-05-11T01:58:22.995Z,5.00
2018-05-11T02:00:50.332Z,5.47
2018-05-11T02:03:17.680Z,4.95
2018-05-11T02:05:45.035Z,4.90
2018-05-11T02:08:12.325Z,4.55
2018-05-11T02:10:39.979Z,4.90
2018-05-11T02:13:07.335Z,5.00
2018-05-11T02:15:34.679Z,5.30
2018-05-11T02:18:02.015Z,5.50
2018-05-11T02:20:29.703Z,5.20
2018-05-11T02:22:57.040Z,4.90
2018-05-11T02:25:24.617Z,5.00
2018-05-11T02:27:51.983Z,5.22
2018-05-11T02:30:19.636Z,4.97
2018-05-11T02:32:47.304Z,5.47
2018-05-11T02:35:14.668Z,4.90
2018-05-11T02:37:41.991Z,4.80
2018-05-11T02:40:09.348Z,4.40
2018-05-11T02:42:36.723Z,4.57
2018-05-11T02:45:04.385Z,4.50
2018-05-11T02:47:31.777Z,4.70
2018-05-11T02:49:59.151Z,4.70
2018-05-11T02:52:26.756Z,4.70
2018-05-11T02:54:54.422Z,5.10
2018-05-11T02:57:21.783Z,4.60
2018-05-11T02:59:49.145Z,4.70
2018-05-11T03:02:16.474Z,4.28
2018-05-11T03:04:44.149Z,4.80
2018-05-11T03:07:11.463Z,4.80
2018-05-11T03:09:38.764Z,5.10
2018-05-11T03:12:06.122Z,4.72
2018-05-11T03:14:33.771Z,5.40
2018-05-11T03:17:01.069Z,4.95
2018-05-11T03:19:28.689Z,4.70
2018-05-11T03:21:56.039Z,4.78
2018-05-11T03:24:23.598Z,4.30
2018-05-11T03:26:50.952Z,4.40
2018-05-11T03:29:18.262Z,4.40
2018-05-11T03:31:45.605Z,4.90
2018-05-11T03:34:13.066Z,5.10
2018-05-11T03:36:40.370Z,5.20
2018-05-11T03:39:08.043Z,5.20
2018-05-11T03:41:35.373Z,4.75
2018-05-11T03:44:02.712Z,5.10
2018-05-11T03:46:30.311Z,4.65
2018-05-11T03:48:57.723Z,5.30
2018-05-11T03:51:25.074Z,4.60
2018-05-11T03:53:52.412Z,4.82
2018-05-11T03:56:19.793Z,5.00
2018-05-11T03:58:47.394Z,4.70
2018-05-11T04:01:20.733Z,4.85
2018-05-11T04:03:54.034Z,5.13
2018-05-11T04:06:27.197Z,4.80
2018-05-11T04:08:54.849Z,4.93
2018-05-11T04:11:22.504Z,5.00
2018-05-11T04:13:50.166Z,4.80
2018-05-11T04:16:17.466Z,5.53
2018-05-11T04:18:45.078Z,5.22
2018-05-11T04:21:12.426Z,4.80
2018-05-11T04:23:39.759Z,4.80
2018-05-11T04:26:07.070Z,4.93
2018-05-11T04:28:34.701Z,4.57
2018-05-11T04:31:02.031Z,5.35
2018-05-11T04:33:29.723Z,4.40
2018-05-11T04:35:57.046Z,4.78
2018-05-11T04:38:24.739Z,4.65
2018-05-11T04:40:52.294Z,4.50
2018-05-11T04:43:19.963Z,4.72
2018-05-11T04:45:47.273Z,5.55
2018-05-11T04:48:14.570Z,4.78
2018-05-11T04:50:41.903Z,6.30
2018-05-11T04:53:09.251Z,5.35
2018-05-11T04:55:36.554Z,5.30
2018-05-11T04:58:03.885Z,4.90
2018-05-11T05:00:31.202Z,6.22
2018-05-11T05:02:58.552Z,4.80
2018-05-11T05:05:25.940Z,5.50
2018-05-11T05:07:53.282Z,4.80
2018-05-11T05:10:20.608Z,4.60
2018-05-11T05:12:47.935Z,4.40
2018-05-11T05:15:15.587Z,4.95
2018-05-11T05:17:43.184Z,4.37
2018-05-11T05:20:11.367Z,4.70
2018-05-11T05:22:38.678Z,4.53
2018-05-11T05:25:05.994Z,4.40
2018-05-11T05:27:33.345Z,4.10
2018-05-11T05:30:00.654Z,5.00
2018-05-11T05:32:28.000Z,4.85
2018-05-11T05:34:55.646Z,5.10
2018-05-11T05:37:23.206Z,4.00
2018-05-11T05:39:50.555Z,4.20
2018-05-11T05:42:17.935Z,4.50
2018-05-11T05:44:45.267Z,4.18
2018-05-11T05:47:12.613Z,4.95
2018-05-11T05:49:40.186Z,4.67
2018-05-11T05:52:07.591Z,4.57
2018-05-11T05:54:35.105Z,4.70
2018-05-11T05:57:02.720Z,5.07
2018-05-11T05:59:30.034Z,4.75
2018-05-11T06:01:57.393Z,4.70
2018-05-11T06:04:24.770Z,4.47
2018-05-11T06:06:52.083Z,5.35
2018-05-11T06:09:19.435Z,6.93
2018-05-11T06:11:47.101Z,5.32
2018-05-11T06:14:14.664Z,5.25
2018-05-11T06:16:42.004Z,6.60
2018-05-11T06:19:09.335Z,4.90
2018-05-11T06:21:36.930Z,4.80
2018-05-11T06:24:04.493Z,4.50
2018-05-11T06:26:31.816Z,4.50
2018-05-11T06:28:59.168Z,3.97
2018-05-11T06:31:26.710Z,4.00
2018-05-11T06:33:54.072Z,4.60
2018-05-11T06:36:21.684Z,4.40
2018-05-11T06:38:49.347Z,4.12
2018-05-11T06:41:17.011Z,4.07
2018-05-11T06:43:44.678Z,4.03
2018-05-11T06:46:11.986Z,4.10
2018-05-11T06:48:39.351Z,4.18
2018-05-11T06:51:06.696Z,4.10
2018-05-11T06:53:34.299Z,3.70
2018-05-11T06:56:01.634Z,3.70
2018-05-11T06:58:28.976Z,4.00
2018-05-11T07:00:56.562Z,3.90
2018-05-11T07:03:24.227Z,4.57
2018-05-11T07:05:51.529Z,4.07
2018-05-11T07:08:18.871Z,3.75
2018-05-11T07:10:46.492Z,3.95
2018-05-11T07:13:14.090Z,4.15
2018-05-11T07:15:41.425Z,4.15
2018-05-11T07:18:08.799Z,4.00
2018-05-11T07:20:36.106Z,3.65
2018-05-11T07:23:03.436Z,3.90
2018-05-11T07:25:30.773Z,4.10
2018-05-11T07:27:58.140Z,3.90
2018-05-11T07:30:25.444Z,4.25
2018-05-11T07:32:52.790Z,3.90
2018-05-11T07:35:20.090Z,3.55
2018-05-11T07:37:47.455Z,3.87
2018-05-11T07:40:14.782Z,3.62
2018-05-11T07:42:42.250Z,4.05
2018-05-11T07:45:09.623Z,3.83
2018-05-11T07:47:36.990Z,4.62
2018-05-11T07:50:04.291Z,4.18
2018-05-11T07:52:31.942Z,4.40
2018-05-11T07:54:59.309Z,3.70
2018-05-11T07:57:26.605Z,3.90
2018-05-11T07:59:53.902Z,3.50
2018-05-11T08:02:21.238Z,3.60
2018-05-11T08:04:48.547Z,3.80
2018-05-11T08:07:16.090Z,3.50
2018-05-11T08:09:43.659Z,3.35
2018-05-11T08:12:11.202Z,3.80
2018-05-11T08:14:38.755Z,3.30
2018-05-11T08:17:06.437Z,3.60
2018-05-11T08:19:33.753Z,3.42
2018-05-11T08:22:01.748Z,3.72
2018-05-11T08:24:30.277Z,2.90
2018-05-11T08:26:57.596Z,3.10
2018-05-11T08:29:25.362Z,3.30
2018-05-11T08:31:52.690Z,3.17
2018-05-11T08:34:20.039Z,3.25
2018-05-11T08:36:47.345Z,3.42
2018-05-11T08:39:14.682Z,3.30
2018-05-11T08:41:41.983Z,3.47
2018-05-11T08:44:09.323Z,2.90
2018-05-11T08:46:36.691Z,2.70
2018-05-11T08:49:03.990Z,3.10
2018-05-11T08:51:31.646Z,2.90
2018-05-11T08:53:59.015Z,2.93
2018-05-11T08:56:26.313Z,2.70
2018-05-11T08:58:53.914Z,3.20
2018-05-11T09:01:21.250Z,2.80
2018-05-11T09:03:48.832Z,2.60
2018-05-11T09:06:16.162Z,2.80
2018-05-11T09:08:43.945Z,3.60
2018-05-11T09:11:11.195Z,3.10
2018-05-11T09:13:38.531Z,2.80
2018-05-11T09:16:05.915Z,3.00
2018-05-11T09:18:33.213Z,2.90
2018-05-11T09:21:00.514Z,2.60
2018-05-11T09:23:28.182Z,2.80
2018-05-11T09:25:55.490Z,3.10
2018-05-11T09:28:22.798Z,3.08
2018-05-11T09:30:50.454Z,2.75
2018-05-11T09:33:18.119Z,2.70
2018-05-11T09:35:45.468Z,2.90
2018-05-11T09:38:13.033Z,3.40
2018-05-11T09:40:40.379Z,2.70
2018-05-11T09:43:07.673Z,2.55
2018-05-11T09:45:35.818Z,2.40
2018-05-11T09:48:03.167Z,2.33
2018-05-11T09:50:30.508Z,4.57
2018-05-11T09:52:57.837Z,2.70
2018-05-11T09:55:25.142Z,2.50
2018-05-11T09:57:52.438Z,4.18
2018-05-11T10:00:25.680Z,2.70
2018-05-11T10:02:52.996Z,2.20
2018-05-11T10:05:20.364Z,3.00
2018-05-11T10:07:47.679Z,2.30
2018-05-11T10:10:15.020Z,2.30
2018-05-11T10:12:42.660Z,2.10
2018-05-11T10:15:10.322Z,2.10
2018-05-11T10:17:37.992Z,2.07
2018-05-11T10:20:05.545Z,2.47
2018-05-11T10:22:32.849Z,2.30
2018-05-11T10:25:00.459Z,2.20
2018-05-11T10:27:27.777Z,2.30
2018-05-11T10:29:55.145Z,2.10
2018-05-11T10:32:22.470Z,2.22
2018-05-11T10:34:49.793Z,2.20
2018-05-11T10:37:17.135Z,2.10
2018-05-11T10:39:44.478Z,2.20
2018-05-11T10:42:11.809Z,2.10
2018-05-11T10:44:39.420Z,2.10
2018-05-11T10:47:07.065Z,2.23
2018-05-11T10:49:34.731Z,2.10
2018-05-11T10:52:02.078Z,2.00
2018-05-11T10:54:29.419Z,2.60
2018-05-11T10:56:56.775Z,2.20
2018-05-11T10:59:24.459Z,2.23
2018-05-11T11:01:51.812Z,2.08
2018-05-11T11:04:19.481Z,2.15
2018-05-11T11:06:46.811Z,2.40
2018-05-11T11:09:14.133Z,2.10
2018-05-11T11:11:41.486Z,2.10
2018-05-11T11:14:08.852Z,2.80
2018-05-11T11:16:36.158Z,2.20
2018-05-11T11:19:03.491Z,2.00
2018-05-11T11:21:31.347Z,1.90
2018-05-11T11:23:58.695Z,2.00
2018-05-11T11:26:26.150Z,2.00
2018-05-11T11:28:53.457Z,2.10
2018-05-11T11:31:20.787Z,2.30
2018-05-11T11:33:48.147Z,2.10
2018-05-11T11:36:15.454Z,2.30
2018-05-11T11:38:42.774Z,2.37
2018-05-11T11:41:10.119Z,2.40
2018-05-11T11:43:37.775Z,2.58
2018-05-11T11:46:05.083Z,2.50
2018-05-11T11:48:32.381Z,2.50
2018-05-11T11:50:59.739Z,2.20
2018-05-11T11:53:27.089Z,2.20
2018-05-11T11:55:54.398Z,2.37
2018-05-11T11:58:21.722Z,2.30
2018-05-11T12:00:49.063Z,2.22
2018-05-11T12:03:16.416Z,2.17
2018-05-11T12:05:44.075Z,2.10
2018-05-11T12:08:11.377Z,2.00
2018-05-11T12:10:38.694Z,2.40
2018-05-11T12:13:05.986Z,1.92
2018-05-11T12:15:33.283Z,2.15
2018-05-11T12:18:00.844Z,2.00
2018-05-11T12:20:28.841Z,2.10
2018-05-11T12:22:56.104Z,2.00
2018-05-11T12:25:23.377Z,2.35
2018-05-11T12:27:50.765Z,1.85
2018-05-11T12:30:18.239Z,2.00
2018-05-11T12:32:45.698Z,2.90
2018-05-11T12:35:13.250Z,2.20
2018-05-11T12:37:40.984Z,2.17
2018-05-11T12:40:08.273Z,2.03
2018-05-11T12:42:35.706Z,2.20
2018-05-11T12:45:02.988Z,2.20
2018-05-11T12:47:30.294Z,2.30
2018-05-11T12:49:57.584Z,2.10
2018-05-11T12:52:24.866Z,2.15
2018-05-11T12:54:52.198Z,2.10
2018-05-11T12:57:19.520Z,2.40
2018-05-11T12:59:47.123Z,2.20
2018-05-11T13:02:14.664Z,2.33
2018-05-11T13:04:42.004Z,2.10
2018-05-11T13:07:09.376Z,2.20
2018-05-11T13:09:36.684Z,2.30
2018-05-11T13:12:04.055Z,2.53
2018-05-11T13:14:31.399Z,2.12
2018-05-11T13:16:59.039Z,2.20
2018-05-11T13:19:26.674Z,2.40
2018-05-11T13:21:54.346Z,2.40
2018-05-11T13:24:22.102Z,1.90
2018-05-11T13:26:49.399Z,2.60
2018-05-11T13:29:17.011Z,2.12
2018-05-11T13:31:44.294Z,2.20
2018-05-11T13:34:11.610Z,2.50
2018-05-11T13:36:38.905Z,2.22
2018-05-11T13:39:06.257Z,2.80
2018-05-11T13:41:33.582Z,2.50
2018-05-11T13:44:00.907Z,2.40
2018-05-11T13:46:28.520Z,2.60
2018-05-11T13:48:55.891Z,2.30
2018-05-11T13:51:23.222Z,1.90
2018-05-11T13:53:50.562Z,2.37
2018-05-11T13:56:18.375Z,2.10
2018-05-11T13:58:45.630Z,2.00
2018-05-11T14:01:12.964Z,2.20
2018-05-11T14:03:40.290Z,2.08
2018-05-11T14:06:07.869Z,2.60
2018-05-11T14:08:35.211Z,2.20
2018-05-11T14:11:02.534Z,2.12
2018-05-11T14:13:30.126Z,2.35
2018-05-11T14:15:57.695Z,2.60
2018-05-11T14:18:25.009Z,2.50
2018-05-11T14:20:52.363Z,2.87
2018-05-11T14:23:19.703Z,3.60
2018-05-11T14:25:47.246Z,3.15
2018-05-11T14:28:14.595Z,2.20
2018-05-11T14:30:41.972Z,2.40
2018-05-11T14:33:09.544Z,2.70
2018-05-11T14:35:36.895Z,2.40
2018-05-11T14:38:04.229Z,3.33
2018-05-11T14:40:31.542Z,2.20
2018-05-11T14:42:58.903Z,2.80
2018-05-11T14:45:26.239Z,2.40
2018-05-11T14:47:53.602Z,3.03
2018-05-11T14:50:20.913Z,2.60
2018-05-11T14:52:48.258Z,2.95
2018-05-11T14:55:15.669Z,2.57
2018-05-11T14:57:43.243Z,2.40
2018-05-11T15:00:10.903Z,2.40
2018-05-11T15:02:38.354Z,2.28
2018-05-11T15:05:05.639Z,2.47
2018-05-11T15:07:33.278Z,2.20
2018-05-11T15:10:00.738Z,2.60
2018-05-11T15:12:27.974Z,2.37
2018-05-11T15:14:55.293Z,2.70
2018-05-11T15:17:22.618Z,2.60
2018-05-11T15:19:50.264Z,2.65
2018-05-11T15:22:17.875Z,2.60
2018-05-11T15:24:45.173Z,2.90
2018-05-11T15:27:12.730Z,2.90
2018-05-11T15:29:40.065Z,2.95
2018-05-11T15:32:07.357Z,2.45
2018-05-11T15:34:34.714Z,2.67
2018-05-11T15:37:02.076Z,2.70
2018-05-11T15:39:29.411Z,2.40
2018-05-11T15:41:57.067Z,2.60
2018-05-11T15:44:24.374Z,3.67
2018-05-11T15:46:51.700Z,4.32
2018-05-11T15:49:19.023Z,4.15
2018-05-11T15:51:46.593Z,3.28
2018-05-11T15:54:13.923Z,3.85
2018-05-11T15:56:41.249Z,4.00
2018-05-11T15:59:08.594Z,3.20
2018-05-11T16:01:35.900Z,3.83
2018-05-11T16:04:03.259Z,3.40
2018-05-11T16:06:30.931Z,3.08
2018-05-11T16:08:58.271Z,3.70
2018-05-11T16:11:25.643Z,4.20
2018-05-11T16:13:53.307Z,15.45
2018-05-11T16:16:20.878Z,4.43
2018-05-11T16:18:48.243Z,4.10
2018-05-11T16:21:15.554Z,3.90
2018-05-11T16:23:43.130Z,3.90
2018-05-11T16:26:10.461Z,3.40
2018-05-11T16:28:37.815Z,3.43
2018-05-11T16:31:05.150Z,3.60
2018-05-11T16:33:32.531Z,3.40
2018-05-11T16:35:59.888Z,3.20
2018-05-11T16:38:27.209Z,3.10
2018-05-11T16:40:54.505Z,3.10
2018-05-11T16:43:21.961Z,3.65
2018-05-11T16:45:49.355Z,3.30
2018-05-11T16:48:16.759Z,5.22
2018-05-11T16:50:44.343Z,3.62
2018-05-11T16:53:11.741Z,3.83
2018-05-11T16:55:39.057Z,3.30
2018-05-11T16:58:06.325Z,3.30
2018-05-11T17:00:33.649Z,4.20
2018-05-11T17:03:01.149Z,3.77
2018-05-11T17:05:28.459Z,3.60
2018-05-11T17:07:55.814Z,4.00
2018-05-11T17:10:23.113Z,3.70
2018-05-11T17:12:50.388Z,3.77
2018-05-11T17:15:17.997Z,4.00
2018-05-11T17:17:45.289Z,3.60
2018-05-11T17:20:12.573Z,3.97
2018-05-11T17:22:40.280Z,3.30
2018-05-11T17:25:07.433Z,4.55
2018-05-11T17:27:35.004Z,3.78
2018-05-11T17:30:02.364Z,3.50
2018-05-11T17:32:29.686Z,3.70
2018-05-11T17:34:56.969Z,4.20
2018-05-11T17:37:24.388Z,4.10
2018-05-11T17:39:51.678Z,4.40
2018-05-11T17:42:18.965Z,4.90
2018-05-11T17:44:46.254Z,4.27
2018-05-11T17:47:13.571Z,4.80
2018-05-11T17:49:40.852Z,3.70
2018-05-11T17:52:08.149Z,4.50
2018-05-11T17:54:35.471Z,3.87
2018-05-11T17:57:02.793Z,3.60
2018-05-11T17:59:30.060Z,3.70
2018-05-11T18:01:57.385Z,3.20
2018-05-11T18:04:24.668Z,3.37
2018-05-11T18:06:51.963Z,3.80
2018-05-11T18:09:19.237Z,3.65
2018-05-11T18:11:46.578Z,3.20
2018-05-11T18:14:13.877Z,3.17
2018-05-11T18:16:41.179Z,2.90
2018-05-11T18:19:08.556Z,4.28
2018-05-11T18:21:35.786Z,3.85
2018-05-11T18:24:03.105Z,4.30
2018-05-11T18:26:30.450Z,3.20
2018-05-11T18:28:57.790Z,3.67
2018-05-11T18:31:25.086Z,3.22
2018-05-11T18:33:52.364Z,5.00
2018-05-11T18:36:19.689Z,3.47
2018-05-11T18:38:46.996Z,3.22
2018-05-11T18:41:14.376Z,3.90
2018-05-11T18:43:41.680Z,3.47
2018-05-11T18:46:08.982Z,3.28
2018-05-11T18:48:36.290Z,3.70
2018-05-11T18:51:03.722Z,3.10
2018-05-11T18:53:31.368Z,3.00
2018-05-11T18:55:58.320Z,3.22
2018-05-11T18:58:25.865Z,3.30
2018-05-11T19:00:53.175Z,3.30
2018-05-11T19:03:20.469Z,3.22
2018-05-11T19:05:47.793Z,3.20
2018-05-11T19:08:15.184Z,3.63
2018-05-11T19:10:42.444Z,4.00
2018-05-11T19:13:09.778Z,3.50
2018-05-11T19:15:37.107Z,3.47
2018-05-11T19:18:04.572Z,3.30
2018-05-11T19:20:31.796Z,2.43
2018-05-11T19:22:59.118Z,3.37
2018-05-11T19:25:26.418Z,2.85
2018-05-11T19:27:53.733Z,3.30
2018-05-11T19:30:21.209Z,3.10
2018-05-11T19:32:48.866Z,2.80
2018-05-11T19:35:16.158Z,3.70
2018-05-11T19:37:43.449Z,3.62
2018-05-11T19:40:10.785Z,4.10
2018-05-11T19:42:38.121Z,3.62
2018-05-11T19:45:06.126Z,3.35
2018-05-11T19:47:33.422Z,4.50
2018-05-11T19:50:00.787Z,2.97
2018-05-11T19:52:28.068Z,2.85
2018-05-11T19:54:55.349Z,3.30
2018-05-11T19:57:22.691Z,2.40
2018-05-11T19:59:49.983Z,2.87
2018-05-11T20:02:17.291Z,2.78
2018-05-11T20:04:44.670Z,2.85
2018-05-11T20:07:11.869Z,2.80
2018-05-11T20:09:39.218Z,2.50
2018-05-11T20:12:06.519Z,2.33
2018-05-11T20:14:33.914Z,2.20
2018-05-11T20:17:01.218Z,2.30
2018-05-11T20:19:28.526Z,2.25
2018-05-11T20:21:55.840Z,2.15
2018-05-11T20:24:23.126Z,2.33
2018-05-11T20:26:50.679Z,2.50
2018-05-11T20:29:18.239Z,2.55
2018-05-11T20:31:45.573Z,2.75
2018-05-11T20:34:12.854Z,2.60
2018-05-11T20:36:40.127Z,3.25
2018-05-11T20:39:07.654Z,2.40
2018-05-11T20:41:35.267Z,2.80
2018-05-11T20:44:02.534Z,2.50
2018-05-11T20:46:29.840Z,2.90
2018-05-11T20:48:57.135Z,3.30
2018-05-11T20:51:24.743Z,3.97
2018-05-11T20:53:52.017Z,4.20
2018-05-11T20:56:19.296Z,4.50
2018-05-11T20:58:46.602Z,7.18
2018-05-11T21:01:14.160Z,8.50
2018-05-11T21:03:41.524Z,9.90
2018-05-11T21:06:08.857Z,10.80
2018-05-11T21:08:36.137Z,10.40
2018-05-11T21:11:03.417Z,10.32
2018-05-11T21:13:30.774Z,10.50
2018-05-11T21:15:58.053Z,10.90
2018-05-11T21:18:25.348Z,10.07
2018-05-11T21:20:52.693Z,10.88
2018-05-11T21:23:20.018Z,10.05
2018-05-11T21:25:47.318Z,9.25
2018-05-11T21:28:14.632Z,8.70
2018-05-11T21:30:42.223Z,8.80
2018-05-11T21:33:09.514Z,7.32
2018-05-11T21:35:36.817Z,6.50
2018-05-11T21:38:04.384Z,5.82
2018-05-11T21:40:31.677Z,5.95
2018-05-11T21:42:59.305Z,5.22
2018-05-11T21:45:26.610Z,4.87
2018-05-11T21:47:53.909Z,4.57
2018-05-11T21:50:21.473Z,4.43
2018-05-11T21:52:48.749Z,3.80
2018-05-11T21:55:16.037Z,3.85
2018-05-11T21:57:43.351Z,3.70
2018-05-11T22:00:10.659Z,3.50
2018-05-11T22:02:37.924Z,3.97
2018-05-11T22:05:05.444Z,3.60
2018-05-11T22:07:32.970Z,3.50
2018-05-11T22:10:00.286Z,3.30
2018-05-11T22:12:27.549Z,3.50
2018-05-11T22:14:54.836Z,2.83
2018-05-11T22:17:22.138Z,3.30
2018-05-11T22:19:49.445Z,2.83
2018-05-11T22:22:16.720Z,3.00
2018-05-11T22:24:44.030Z,2.50
2018-05-11T22:27:11.309Z,2.80
2018-05-11T22:29:38.625Z,2.90
2018-05-11T22:32:05.919Z,2.60
2018-05-11T22:34:33.241Z,2.70
2018-05-11T22:37:00.506Z,2.50
2018-05-11T22:39:27.814Z,2.30
2018-05-11T22:41:55.143Z,2.70
2018-05-11T22:44:22.648Z,2.40
2018-05-11T22:46:49.947Z,3.10
2018-05-11T22:49:17.485Z,2.90
2018-05-11T22:51:45.047Z,3.00
2018-05-11T22:54:12.333Z,2.60
2018-05-11T22:56:39.911Z,2.90
2018-05-11T22:59:07.218Z,3.97
2018-05-11T23:01:34.521Z,2.97
2018-05-11T23:04:01.801Z,3.30
2018-05-11T23:06:29.125Z,2.97
2018-05-11T23:08:56.482Z,3.00
2018-05-11T23:11:23.906Z,2.58
2018-05-11T23:13:51.257Z,2.40
2018-05-11T23:16:18.798Z,2.78
2018-05-11T23:18:46.356Z,2.78
2018-05-11T23:21:13.651Z,2.97
2018-05-11T23:23:40.959Z,3.00
2018-05-11T23:26:08.294Z,2.70
2018-05-11T23:28:35.570Z,2.65
2018-05-11T23:31:02.892Z,2.50
2018-05-11T23:33:30.165Z,2.40
2018-05-11T23:35:57.745Z,2.70
2018-05-11T23:38:25.044Z,2.50
2018-05-11T23:40:52.360Z,3.10
2018-05-11T23:43:19.915Z,2.72
2018-05-11T23:45:47.245Z,2.78
2018-05-11T23:48:14.550Z,2.85
2018-05-11T23:50:41.878Z,2.80
2018-05-11T23:53:09.148Z,2.80
2018-05-11T23:55:36.442Z,2.47
2018-05-11T23:58:03.937Z,2.75
